createdAt,value
2022-10-28T00:01:28.818Z,7.68
2022-10-28T00:03:57.121Z,7.63
2022-10-28T00:06:27.480Z,7.20
2022-10-28T00:08:54.830Z,8.50
2022-10-28T00:11:23.446Z,7.30
2022-10-28T00:13:50.990Z,7.50
2022-10-28T00:16:19.695Z,6.85
2022-10-28T00:18:47.306Z,8.25
2022-10-28T00:21:16.302Z,6.90
2022-10-28T00:23:43.424Z,7.93
2022-10-28T00:26:12.362Z,7.63
2022-10-28T00:28:43.403Z,7.53
2022-10-28T00:31:11.684Z,7.38
2022-10-28T00:33:39.103Z,7.18
2022-10-28T00:36:16.820Z,7.40
2022-10-28T00:38:44.765Z,7.43
2022-10-28T00:41:12.992Z,7.65
2022-10-28T00:43:41.588Z,7.18
2022-10-28T00:46:16.976Z,7.93
2022-10-28T00:48:44.704Z,6.70
2022-10-28T00:51:11.852Z,6.80
2022-10-28T00:53:40.398Z,7.60
2022-10-28T00:56:08.633Z,6.97
2022-10-28T00:58:35.755Z,7.53
2022-10-28T01:01:02.902Z,6.90
2022-10-28T01:03:30.229Z,7.57
2022-10-28T01:05:58.165Z,7.90
2022-10-28T01:08:25.247Z,7.22
2022-10-28T01:11:07.679Z,7.35
2022-10-28T01:13:34.705Z,7.40
2022-10-28T01:16:04.777Z,7.38
2022-10-28T01:19:10.606Z,7.60
2022-10-28T01:21:43.769Z,7.47
2022-10-28T01:24:36.452Z,7.85
2022-10-28T01:27:15.135Z,6.70
2022-10-28T01:29:57.452Z,7.78
2022-10-28T01:32:33.365Z,7.22
2022-10-28T01:35:06.343Z,7.32
2022-10-28T01:37:59.541Z,7.22
2022-10-28T01:40:45.154Z,7.47
2022-10-28T01:43:21.598Z,7.10
2022-10-28T01:45:48.712Z,7.15
2022-10-28T01:48:18.764Z,7.25
2022-10-28T01:50:45.811Z,7.63
2022-10-28T01:53:15.548Z,7.30
2022-10-28T01:55:44.323Z,7.55
2022-10-28T01:58:13.051Z,6.93
2022-10-28T02:00:40.618Z,7.25
2022-10-28T02:03:09.594Z,7.57
2022-10-28T02:05:39.733Z,7.50
2022-10-28T02:08:19.039Z,7.32
2022-10-28T02:11:01.855Z,7.25
2022-10-28T02:13:49.168Z,6.93
2022-10-28T02:16:24.271Z,7.55
2022-10-28T02:18:59.274Z,7.97
2022-10-28T02:21:35.610Z,7.63
2022-10-28T02:24:09.028Z,7.30
2022-10-28T02:26:39.361Z,7.53
2022-10-28T02:29:09.097Z,7.15
2022-10-28T02:31:38.771Z,7.13
2022-10-28T02:34:10.242Z,7.28
2022-10-28T02:36:39.446Z,7.10
2022-10-28T02:39:07.471Z,7.70
2022-10-28T02:41:39.455Z,7.25
2022-10-28T02:44:08.135Z,7.40
2022-10-28T02:46:36.299Z,7.75
2022-10-28T02:49:11.165Z,7.70
2022-10-28T02:51:49.323Z,7.43
2022-10-28T02:54:25.282Z,7.35
2022-10-28T02:56:54.278Z,7.23
2022-10-28T02:59:21.441Z,7.40
2022-10-28T03:01:48.625Z,7.03
2022-10-28T03:04:15.827Z,7.65
2022-10-28T03:06:42.880Z,7.93
2022-10-28T03:09:09.948Z,6.60
2022-10-28T03:11:37.039Z,7.07
2022-10-28T03:14:04.082Z,6.97
2022-10-28T03:16:31.160Z,7.32
2022-10-28T03:18:58.416Z,6.78
2022-10-28T03:21:25.562Z,6.90
2022-10-28T03:23:52.617Z,6.65
2022-10-28T03:26:19.647Z,6.97
2022-10-28T03:28:46.795Z,6.80
2022-10-28T03:31:15.105Z,6.70
2022-10-28T03:33:42.287Z,7.30
2022-10-28T03:36:09.423Z,6.95
2022-10-28T03:38:36.531Z,6.88
2022-10-28T03:41:03.593Z,6.05
2022-10-28T03:43:30.724Z,6.55
2022-10-28T03:45:57.845Z,6.90
2022-10-28T03:48:24.936Z,6.55
2022-10-28T03:50:55.392Z,6.85
2022-10-28T03:53:25.240Z,6.63
2022-10-28T03:55:56.887Z,6.68
2022-10-28T03:58:24.353Z,6.77
2022-10-28T04:00:52.167Z,6.72
2022-10-28T04:03:19.932Z,6.72
2022-10-28T04:05:50.236Z,7.18
2022-10-28T04:08:18.341Z,6.55
2022-10-28T04:10:47.507Z,6.83
2022-10-28T04:13:15.210Z,6.57
2022-10-28T04:15:42.287Z,6.50
2022-10-28T04:18:09.510Z,6.38
2022-10-28T04:20:36.696Z,6.82
2022-10-28T04:23:04.053Z,7.20
2022-10-28T04:25:31.340Z,7.05
2022-10-28T04:27:58.430Z,7.18
2022-10-28T04:30:25.483Z,6.63
2022-10-28T04:32:52.610Z,7.03
2022-10-28T04:35:19.684Z,6.60
2022-10-28T04:37:46.795Z,6.78
2022-10-28T04:40:13.912Z,7.03
2022-10-28T04:42:41.028Z,6.82
2022-10-28T04:45:08.767Z,6.90
2022-10-28T04:47:35.858Z,6.97
2022-10-28T04:50:03.286Z,7.07
2022-10-28T04:52:30.452Z,6.45
2022-10-28T04:54:57.527Z,6.45
2022-10-28T04:57:24.574Z,6.97
2022-10-28T04:59:51.661Z,7.57
2022-10-28T05:02:19.013Z,7.10
2022-10-28T05:04:46.229Z,7.35
2022-10-28T05:07:13.283Z,7.88
2022-10-28T05:09:40.372Z,7.18
2022-10-28T05:12:07.462Z,6.50
2022-10-28T05:14:34.514Z,6.82
2022-10-28T05:17:01.575Z,7.50
2022-10-28T05:19:28.608Z,6.90
2022-10-28T05:21:55.649Z,6.78
2022-10-28T05:24:22.723Z,7.03
2022-10-28T05:26:49.760Z,6.97
2022-10-28T05:29:19.431Z,6.40
2022-10-28T05:31:46.903Z,7.15
2022-10-28T05:34:14.019Z,7.80
2022-10-28T05:36:41.076Z,6.40
2022-10-28T05:39:08.153Z,6.85
2022-10-28T05:41:38.583Z,6.40
2022-10-28T05:44:06.154Z,6.50
2022-10-28T05:46:33.215Z,7.00
2022-10-28T05:49:00.325Z,6.47
2022-10-28T05:51:27.389Z,6.65
2022-10-28T05:53:54.610Z,6.93
2022-10-28T05:56:21.657Z,5.78
2022-10-28T06:01:17.333Z,6.60
2022-10-28T06:03:44.534Z,6.85
2022-10-28T06:06:11.636Z,6.68
2022-10-28T06:08:38.715Z,6.38
2022-10-28T06:11:04.303Z,5.97
2022-10-28T06:13:31.348Z,6.00
2022-10-28T06:15:58.482Z,6.03
2022-10-28T06:18:25.577Z,5.82
2022-10-28T06:20:53.713Z,6.00
2022-10-28T06:23:20.945Z,5.80
2022-10-28T06:25:48.147Z,5.80
2022-10-28T06:28:15.373Z,5.80
2022-10-28T06:30:42.498Z,6.53
2022-10-28T06:33:09.599Z,6.18
2022-10-28T06:35:36.932Z,6.25
2022-10-28T06:38:08.517Z,5.90
2022-10-28T06:40:36.519Z,5.78
2022-10-28T06:43:04.627Z,5.90
2022-10-28T06:45:32.666Z,6.05
2022-10-28T06:48:02.524Z,5.78
2022-10-28T06:50:30.453Z,6.13
2022-10-28T06:52:57.775Z,5.50
2022-10-28T06:55:28.783Z,5.55
2022-10-28T06:57:59.694Z,5.70
2022-10-28T07:00:26.901Z,5.28
2022-10-28T07:02:55.049Z,5.27
2022-10-28T07:05:22.731Z,5.88
2022-10-28T07:07:50.231Z,5.40
2022-10-28T07:10:17.394Z,5.45
2022-10-28T07:12:44.539Z,5.47
2022-10-28T07:15:12.048Z,5.03
2022-10-28T07:17:39.172Z,4.78
2022-10-28T07:20:06.534Z,5.78
2022-10-28T07:22:34.645Z,5.07
2022-10-28T07:25:01.710Z,5.68
2022-10-28T07:27:28.799Z,5.23
2022-10-28T07:29:55.849Z,5.53
2022-10-28T07:32:22.891Z,5.55
2022-10-28T07:34:50.086Z,6.03
2022-10-28T07:37:17.265Z,5.88
2022-10-28T07:39:44.345Z,5.77
2022-10-28T07:42:11.393Z,5.85
2022-10-28T07:44:39.559Z,5.90
2022-10-28T07:47:06.627Z,5.63
2022-10-28T07:49:33.705Z,5.90
2022-10-28T07:52:00.796Z,5.77
2022-10-28T07:54:28.926Z,5.63
2022-10-28T07:56:55.996Z,5.90
2022-10-28T07:59:26.774Z,5.75
2022-10-28T08:01:54.305Z,5.43
2022-10-28T08:04:21.424Z,5.63
2022-10-28T08:06:48.549Z,5.85
2022-10-28T08:09:17.121Z,5.95
2022-10-28T08:11:44.212Z,5.55
2022-10-28T08:14:11.266Z,5.95
2022-10-28T08:16:38.333Z,5.30
2022-10-28T08:19:07.856Z,5.60
2022-10-28T08:21:35.104Z,5.93
2022-10-28T08:24:02.204Z,5.78
2022-10-28T08:26:29.250Z,6.03
2022-10-28T08:28:56.397Z,5.80
2022-10-28T08:31:23.475Z,5.18
2022-10-28T08:33:50.594Z,5.40
2022-10-28T08:36:17.718Z,5.80
2022-10-28T08:38:46.036Z,5.40
2022-10-28T08:41:16.287Z,5.97
2022-10-28T08:43:57.864Z,6.22
2022-10-28T08:46:46.059Z,5.47
2022-10-28T08:49:14.775Z,6.10
2022-10-28T08:51:53.838Z,5.43
2022-10-28T08:54:31.620Z,5.03
2022-10-28T08:57:00.476Z,5.70
2022-10-28T08:59:32.997Z,5.60
2022-10-28T09:02:01.827Z,5.40
2022-10-28T09:04:43.205Z,5.05
2022-10-28T09:07:14.838Z,6.43
2022-10-28T09:09:41.949Z,5.03
2022-10-28T09:12:09.012Z,5.35
2022-10-28T09:14:36.066Z,5.78
2022-10-28T09:17:20.186Z,5.30
2022-10-28T09:19:51.765Z,5.10
2022-10-28T09:22:24.265Z,5.07
2022-10-28T09:24:54.410Z,5.03
2022-10-28T09:27:21.556Z,5.38
2022-10-28T09:29:48.572Z,5.13
2022-10-28T09:32:18.723Z,4.73
2022-10-28T09:35:07.775Z,5.60
2022-10-28T09:37:55.139Z,4.63
2022-10-28T09:40:27.123Z,4.70
2022-10-28T09:43:07.229Z,4.78
2022-10-28T09:45:36.637Z,4.70
2022-10-28T09:48:06.739Z,4.70
2022-10-28T09:50:33.926Z,5.45
2022-10-28T09:53:10.615Z,4.95
2022-10-28T09:55:37.824Z,5.00
2022-10-28T09:58:05.474Z,4.87
2022-10-28T10:00:32.761Z,4.63
2022-10-28T10:03:00.024Z,4.43
2022-10-28T10:05:27.480Z,4.72
2022-10-28T10:08:06.916Z,4.82
2022-10-28T10:10:43.690Z,4.33
2022-10-28T10:13:11.885Z,4.53
2022-10-28T10:15:40.380Z,4.75
2022-10-28T10:18:11.954Z,5.03
2022-10-28T10:20:50.410Z,4.70
2022-10-28T10:23:24.937Z,4.90
2022-10-28T10:25:58.015Z,4.55
2022-10-28T10:28:26.080Z,5.15
2022-10-28T10:30:54.023Z,4.50
2022-10-28T10:33:32.792Z,5.28
2022-10-28T10:36:02.382Z,4.90
2022-10-28T10:38:30.093Z,4.38
2022-10-28T10:40:57.268Z,4.55
2022-10-28T10:43:30.515Z,4.95
2022-10-28T10:46:06.011Z,4.43
2022-10-28T10:48:36.955Z,4.30
2022-10-28T10:51:13.310Z,4.40
2022-10-28T10:53:40.707Z,4.43
2022-10-28T10:56:09.076Z,5.05
2022-10-28T10:58:38.364Z,4.70
2022-10-28T11:01:07.262Z,4.70
2022-10-28T11:03:36.698Z,4.47
2022-10-28T11:06:22.414Z,4.63
2022-10-28T11:08:55.230Z,4.72
2022-10-28T11:11:23.318Z,4.63
2022-10-28T11:14:03.119Z,4.47
2022-10-28T11:16:30.270Z,4.30
2022-10-28T11:18:57.354Z,4.80
2022-10-28T11:21:42.889Z,4.97
2022-10-28T11:24:28.789Z,5.05
2022-10-28T11:27:02.038Z,4.30
2022-10-28T11:29:29.379Z,4.28
2022-10-28T11:32:05.085Z,4.35
2022-10-28T11:34:46.260Z,3.90
2022-10-28T11:37:32.176Z,4.40
2022-10-28T11:40:05.326Z,4.20
2022-10-28T11:42:40.905Z,4.35
2022-10-28T11:45:10.962Z,4.40
2022-10-28T11:48:01.096Z,4.22
2022-10-28T11:50:54.727Z,3.97
2022-10-28T11:53:40.688Z,4.27
2022-10-28T11:56:13.654Z,4.25
2022-10-28T11:58:46.714Z,3.70
2022-10-28T12:01:28.532Z,4.25
2022-10-28T12:04:14.535Z,4.65
2022-10-28T12:06:41.601Z,4.23
2022-10-28T12:09:14.762Z,4.43
2022-10-28T12:11:58.064Z,4.55
2022-10-28T12:14:42.340Z,3.95
2022-10-28T12:17:21.894Z,4.25
2022-10-28T12:19:54.608Z,4.40
2022-10-28T12:22:28.670Z,4.07
2022-10-28T12:24:56.401Z,4.07
2022-10-28T12:27:26.370Z,4.35
2022-10-28T12:29:55.410Z,4.25
2022-10-28T12:32:23.925Z,3.90
2022-10-28T12:34:54.031Z,4.32
2022-10-28T12:37:43.499Z,4.53
2022-10-28T12:40:22.163Z,4.50
2022-10-28T12:42:55.821Z,4.10
2022-10-28T12:45:23.622Z,4.30
2022-10-28T12:47:59.981Z,3.92
2022-10-28T12:50:27.347Z,4.10
2022-10-28T12:53:13.290Z,4.65
2022-10-28T12:55:42.337Z,4.13
2022-10-28T12:58:09.498Z,4.07
2022-10-28T13:00:37.885Z,3.97
2022-10-28T13:03:08.038Z,4.88
2022-10-28T13:05:39.121Z,4.20
2022-10-28T13:08:25.090Z,4.38
2022-10-28T13:10:52.130Z,4.70
2022-10-28T13:13:26.153Z,4.57
2022-10-28T13:15:59.472Z,4.10
2022-10-28T13:18:38.988Z,4.35
2022-10-28T13:21:06.094Z,4.60
2022-10-28T13:23:33.111Z,4.20
2022-10-28T13:26:00.184Z,4.40
2022-10-28T13:28:42.465Z,4.60
2022-10-28T13:31:09.611Z,4.13
2022-10-28T13:33:38.442Z,4.28
2022-10-28T13:36:11.278Z,4.97
2022-10-28T13:38:39.171Z,4.28
2022-10-28T13:41:06.242Z,4.25
2022-10-28T13:43:51.931Z,4.10
2022-10-28T13:46:37.607Z,4.07
2022-10-28T13:49:24.023Z,3.83
2022-10-28T13:51:52.125Z,4.05
2022-10-28T13:54:31.490Z,4.20
2022-10-28T13:57:12.744Z,4.30
2022-10-28T13:59:47.398Z,4.13
2022-10-28T14:02:47.009Z,4.13
2022-10-28T14:05:15.621Z,3.85
2022-10-28T14:07:52.262Z,3.80
2022-10-28T14:10:30.168Z,4.00
2022-10-28T14:13:02.194Z,4.05
2022-10-28T14:15:31.186Z,4.07
2022-10-28T14:21:11.995Z,4.28
2022-10-28T14:23:45.180Z,4.60
2022-10-28T14:26:12.246Z,4.22
2022-10-28T14:28:39.276Z,3.73
2022-10-28T14:31:12.264Z,3.83
2022-10-28T14:33:41.970Z,4.10
2022-10-28T14:36:18.022Z,4.00
2022-10-28T14:38:56.605Z,4.10
2022-10-28T14:41:35.066Z,4.00
2022-10-28T14:44:19.564Z,3.80
2022-10-28T14:46:54.274Z,4.03
2022-10-28T14:49:24.065Z,3.42
2022-10-28T14:51:51.690Z,3.50
2022-10-28T14:54:23.686Z,5.07
2022-10-28T14:56:55.320Z,3.80
2022-10-28T14:59:30.693Z,4.15
2022-10-28T15:02:16.653Z,4.22
2022-10-28T15:04:45.210Z,4.38
2022-10-28T15:07:14.141Z,4.10
2022-10-28T15:09:43.375Z,3.40
2022-10-28T15:12:17.369Z,3.33
2022-10-28T15:14:47.483Z,3.70
2022-10-28T15:17:16.549Z,3.63
2022-10-28T15:19:44.448Z,3.50
2022-10-28T15:22:14.588Z,3.25
2022-10-28T15:24:44.783Z,3.20
2022-10-28T15:27:14.582Z,3.38
2022-10-28T15:29:42.631Z,4.22
2022-10-28T15:32:16.134Z,3.73
2022-10-28T15:34:44.150Z,3.80
2022-10-28T15:37:11.777Z,3.20
2022-10-28T15:39:39.554Z,3.67
2022-10-28T15:42:25.701Z,3.70
2022-10-28T15:44:55.873Z,3.50
2022-10-28T15:47:26.032Z,3.90
2022-10-28T15:50:20.919Z,3.70
2022-10-28T15:52:50.036Z,3.78
2022-10-28T15:55:23.795Z,3.85
2022-10-28T15:58:20.822Z,3.63
2022-10-28T16:00:52.054Z,3.78
2022-10-28T16:03:26.006Z,3.63
2022-10-28T16:05:54.186Z,3.03
2022-10-28T16:08:23.216Z,3.05
2022-10-28T16:10:55.219Z,3.47
2022-10-28T16:13:22.260Z,3.67
2022-10-28T16:16:00.358Z,3.72
2022-10-28T16:18:29.121Z,3.63
2022-10-28T16:20:57.414Z,3.63
2022-10-28T16:23:25.774Z,3.40
2022-10-28T16:25:52.842Z,3.78
2022-10-28T16:28:21.800Z,3.55
2022-10-28T16:30:50.901Z,3.83
2022-10-28T16:33:18.012Z,3.88
2022-10-28T16:35:45.100Z,4.00
2022-10-28T16:38:13.092Z,3.78
2022-10-28T16:40:55.557Z,3.53
2022-10-28T16:43:24.394Z,3.65
2022-10-28T16:45:52.324Z,3.80
2022-10-28T16:48:20.010Z,3.40
2022-10-28T16:50:54.056Z,3.92
2022-10-28T16:53:21.384Z,4.05
2022-10-28T16:55:48.455Z,4.38
2022-10-28T16:58:15.796Z,3.72
2022-10-28T17:00:43.339Z,4.50
2022-10-28T17:03:15.221Z,3.85
2022-10-28T17:05:43.834Z,4.20
2022-10-28T17:08:13.918Z,4.13
2022-10-28T17:10:41.720Z,4.05
2022-10-28T17:13:15.272Z,3.93
2022-10-28T17:15:42.880Z,4.00
2022-10-28T17:18:10.901Z,4.25
2022-10-28T17:20:40.837Z,3.72
2022-10-28T17:23:07.951Z,4.22
2022-10-28T17:25:35.066Z,4.40
2022-10-28T17:28:02.204Z,4.60
2022-10-28T17:30:29.494Z,4.50
2022-10-28T17:32:56.742Z,4.63
2022-10-28T17:35:24.220Z,3.72
2022-10-28T17:37:51.357Z,4.23
2022-10-28T17:40:18.584Z,4.00
2022-10-28T17:42:45.683Z,4.25
2022-10-28T17:45:16.522Z,4.35
2022-10-28T17:47:47.063Z,4.32
2022-10-28T17:50:14.129Z,3.70
2022-10-28T17:52:41.218Z,4.18
2022-10-28T17:55:08.833Z,4.03
2022-10-28T17:57:35.971Z,3.78
2022-10-28T18:00:03.097Z,3.65
2022-10-28T18:02:30.264Z,3.90
2022-10-28T18:04:57.464Z,4.05
2022-10-28T18:07:24.619Z,4.13
2022-10-28T18:09:51.670Z,4.00
2022-10-28T18:12:18.823Z,3.97
2022-10-28T18:14:45.917Z,3.63
2022-10-28T18:17:14.578Z,4.20
2022-10-28T18:19:41.642Z,4.05
2022-10-28T18:22:08.710Z,4.18
2022-10-28T18:24:35.789Z,4.28
2022-10-28T18:27:02.872Z,3.97
2022-10-28T18:29:29.991Z,12.73
2022-10-28T18:31:57.275Z,25.58
2022-10-28T18:34:24.441Z,7.82
2022-10-28T18:36:51.861Z,6.05
2022-10-28T18:39:18.933Z,5.03
2022-10-28T18:41:46.025Z,4.40
2022-10-28T18:44:14.090Z,5.28
2022-10-28T18:46:41.826Z,4.63
2022-10-28T18:49:08.891Z,4.13
2022-10-28T18:51:36.238Z,10.57
2022-10-28T18:54:03.665Z,7.25
2022-10-28T18:56:30.957Z,5.65
2022-10-28T18:58:58.590Z,5.05
2022-10-28T19:01:27.139Z,4.45
2022-10-28T19:03:55.071Z,5.30
2022-10-28T19:06:22.588Z,6.03
2022-10-28T19:08:53.658Z,5.93
2022-10-28T19:11:21.413Z,4.50
2022-10-28T19:13:48.736Z,5.00
2022-10-28T19:16:15.928Z,6.03
2022-10-28T19:18:43.055Z,5.90
2022-10-28T19:21:14.341Z,8.30
2022-10-28T19:23:41.734Z,6.40
2022-10-28T19:26:09.597Z,8.57
2022-10-28T19:28:54.853Z,7.20
2022-10-28T19:31:26.197Z,7.78
2022-10-28T19:33:54.105Z,6.68
2022-10-28T19:36:25.252Z,6.63
2022-10-28T19:38:56.164Z,6.45
2022-10-28T19:41:32.465Z,8.53
2022-10-28T19:44:00.440Z,8.45
2022-10-28T19:46:28.738Z,8.63
2022-10-28T19:48:56.898Z,7.65
2022-10-28T19:51:25.670Z,7.05
2022-10-28T19:53:54.137Z,6.73
2022-10-28T19:56:21.649Z,7.05
2022-10-28T19:58:51.244Z,6.22
2022-10-28T20:01:18.469Z,5.68
2022-10-28T20:03:49.157Z,5.20
2022-10-28T20:06:18.379Z,5.67
2022-10-28T20:08:46.463Z,4.93
2022-10-28T20:11:14.766Z,5.45
2022-10-28T20:13:42.311Z,5.28
2022-10-28T20:16:13.812Z,5.93
2022-10-28T20:18:41.325Z,6.60
2022-10-28T20:21:13.604Z,6.88
2022-10-28T20:23:41.145Z,5.82
2022-10-28T20:26:08.698Z,5.35
2022-10-28T20:28:35.924Z,5.38
2022-10-28T20:31:04.563Z,4.83
2022-10-28T20:33:32.153Z,4.93
2022-10-28T20:35:59.586Z,5.43
2022-10-28T20:38:27.108Z,5.82
2022-10-28T20:40:55.816Z,4.63
2022-10-28T20:43:24.108Z,5.50
2022-10-28T20:45:59.322Z,5.20
2022-10-28T20:48:27.597Z,4.90
2022-10-28T20:50:58.506Z,4.80
2022-10-28T20:53:26.425Z,4.70
2022-10-28T20:55:54.469Z,4.60
2022-10-28T20:58:22.493Z,4.65
2022-10-28T21:00:49.631Z,5.15
2022-10-28T21:03:17.081Z,4.50
2022-10-28T21:05:44.345Z,4.60
2022-10-28T21:08:11.927Z,4.37
2022-10-28T21:10:39.801Z,4.30
2022-10-28T21:13:07.133Z,4.40
2022-10-28T21:15:35.469Z,4.55
2022-10-28T21:18:03.049Z,4.78
2022-10-28T21:20:30.181Z,4.37
2022-10-28T21:22:57.413Z,4.35
2022-10-28T21:25:24.679Z,4.50
2022-10-28T21:27:51.811Z,4.15
2022-10-28T21:30:19.336Z,4.97
2022-10-28T21:32:46.507Z,4.70
2022-10-28T21:35:13.684Z,4.80
2022-10-28T21:37:40.848Z,4.93
2022-10-28T21:40:08.223Z,4.05
2022-10-28T21:42:35.317Z,4.43
2022-10-28T21:45:02.408Z,5.17
2022-10-28T21:47:29.469Z,4.40
2022-10-28T21:49:56.579Z,4.28
2022-10-28T21:52:23.635Z,4.30
2022-10-28T21:54:50.762Z,4.38
2022-10-28T21:57:18.026Z,4.87
2022-10-28T21:59:49.365Z,4.57
2022-10-28T22:02:16.585Z,4.40
2022-10-28T22:04:43.746Z,4.78
2022-10-28T22:07:10.832Z,4.68
2022-10-28T22:09:37.964Z,3.97
2022-10-28T22:12:05.114Z,4.13
2022-10-28T22:14:32.590Z,4.25
2022-10-28T22:16:59.718Z,4.18
2022-10-28T22:19:26.780Z,3.80
2022-10-28T22:21:53.839Z,3.80
2022-10-28T22:24:20.958Z,3.90
2022-10-28T22:26:48.007Z,4.55
2022-10-28T22:29:15.080Z,4.05
2022-10-28T22:31:42.273Z,3.83
2022-10-28T22:34:09.322Z,4.23
2022-10-28T22:36:36.385Z,3.90
2022-10-28T22:39:03.520Z,4.47
2022-10-28T22:41:31.541Z,4.03
2022-10-28T22:43:59.644Z,4.10
2022-10-28T22:46:27.585Z,4.13
2022-10-28T22:48:54.961Z,3.85
2022-10-28T22:51:22.382Z,3.88
2022-10-28T22:53:49.700Z,3.83
2022-10-28T22:56:18.412Z,4.03
2022-10-28T22:58:45.540Z,3.93
2022-10-28T23:01:14.510Z,4.00
2022-10-28T23:03:43.099Z,4.55
2022-10-28T23:06:11.035Z,4.40
2022-10-28T23:08:39.078Z,3.70
2022-10-28T23:11:06.633Z,4.03
2022-10-28T23:13:34.013Z,4.05
2022-10-28T23:16:08.124Z,5.22
2022-10-28T23:18:35.419Z,6.15
2022-10-28T23:21:06.963Z,4.97
2022-10-28T23:23:34.299Z,4.43
2022-10-28T23:26:01.419Z,4.53
2022-10-28T23:28:28.516Z,5.13
2022-10-28T23:30:55.603Z,4.50
2022-10-28T23:33:22.658Z,5.05
2022-10-28T23:35:56.090Z,4.50
2022-10-28T23:38:23.229Z,4.22
2022-10-28T23:41:01.031Z,4.15
2022-10-28T23:43:28.525Z,3.92
2022-10-28T23:45:55.795Z,4.18
2022-10-28T23:48:22.976Z,4.00
2022-10-28T23:50:50.061Z,4.25
2022-10-28T23:53:17.204Z,3.85
2022-10-28T23:55:45.045Z,4.47
2022-10-28T23:58:12.787Z,4.25
